Language selection

My Weather Profile Weather Topics  | 

Douglas Channel: Past 24 Hour Conditions

 

South Nomad - 46036

08:00 AM PST 26 November 2022Buoy position: 48.35N 133.95W
Disclaimer

This table is a summary of hourly weather conditions for the past 24 hours.
Please note that these observations might not always be representative of weather conditions over their associated marine area.

Date / Time
(PST)
Wind(knots) Wave height(m) Wave period(s) Pressure(kPa) Air tempC) Water tempC)
26 November 2022
8:00 WSW 25 gust 30 3.8 11.1 102.7 11 12
7:00 WSW 24 gust 31 4.0 10.2 102.7 11 12
6:00 WSW 23 gust 29 3.7 11.6 102.7 11 12
5:00 WSW 23 gust 28 3.8 12.2 102.8 11 12
4:00 WSW 23 gust 29 4.0 12.2 102.8 10 11
3:00 WSW 21 gust 25 3.9 11.1 102.9 11 11
2:00 WSW 22 gust 27 4.0 11.6 102.9 11 11
1:00 WSW 21 gust 26 3.8 11.6 103.0 11 11
0:00 WSW 20 gust 25 4.1 12.2 103.0 11 11
25 November 2022
23:00 WSW 17 N/A N/A N/A N/A N/A
22:00 WSW 17 gust 22 4.2 12.8 103.0 11 11
21:00 W 15 gust 22 4.1 12.8 103.0 11 11
20:00 W 16 gust 22 4.4 13.5 103.0 11 11
19:00 W 16 gust 26 4.3 13.5 103.0 10 12
18:00 WNW 16 gust 21 4.4 12.8 103.0 10 12
17:00 W 17 gust 22 4.6 12.2 102.9 11 12
16:00 WNW 15 gust 20 4.4 13.5 102.9 10 12
15:00 WNW 16 gust 20 4.6 14.2 102.8 11 12
14:00 WNW 20 gust 25 5.0 12.8 102.8 11 11
13:00 W 17 gust 21 4.6 12.8 102.8 11 11
12:00 WNW 17 gust 22 4.5 12.2 102.8 11 11
11:00 WNW 18 gust 22 4.2 12.2 102.8 11 11
10:00 WNW 16 gust 21 4.4 13.5 102.7 11 11
9:00 WNW 17 gust 21 3.9 12.8 102.6 10 11
8:00 WNW 17 gust 21 4.2 11.1 102.6 10 11

Zoom-in to make a selection

Map of Pacific - North Coast marine weather areas Middle Nomad - 46004 South Nomad - 46036 Dixon Entrance Central - 46145 South Moresby - 46147 Nanakwa Shoal - 46181 North Hecate Strait - 46183 North Nomad - 46184 South Hecate Strait - 46185 West Sea Otter - 46204 West Dixon Entrance - 46205 East Dellwood - 46207 West Moresby - 46208 Sartine Island Cape St.James Kindakun Rocks Langara Island Masset Municipal Airport Rose Spit Sandspit Airport Bella Bella Airport Bella Coola Airport Bonilla Island Cathedral Point Cumshewa Island Grey Islet Holland Rock Lucy Islands Lightstation Prince Rupert Airport
Legend:
buoy Buoy
land station Land Station

Pacific - North Coast Area

Another Region

What we are doing

Date modified: